New Hartfd, New York
Current Conditions -  °F | °C
As of 3:53 AM on Saturday 01 Nov 2014 (Local Time) from KRME Reporting Station
Overcast Overcast  
Wind Chill: 41°   Ceiling: 4800
Heat Index: 41°   Visibility: 10mi
Dew Point: 33°   Wind: 0mph
Humidity: 73%   Direction: NA
Pressure: 29.96"   Gusts: NA
Location:  43.06°N, 75.2864°W
Report Text: KRME 010753Z AUTO 00000KT 10SM FEW036 BKN048 OVC055 05/01 A2996 RMK AO2 SLP146 T00500006
Loading
Personal Weather Stations






























Interactive Weather Map
Tropical Storm Tracking
New forecast layout! Learn more

10-Day Weather Forecast

Advertisements
Track Severe Weather on mobile